Time;durP1;ratioP1;P1;durP2;ratioP2;P2;SDS_P1;SDS_P2;PMS_P1;PMS_P2;Temp;Humidity;BMP_temperature;BMP_pressure;BME280_temperature;BME280_humidity;BME280_pressure;Samples;Min_cycle;Max_cycle;Signal;HPM_P1;HPM_P2
2022/10/22 00:00:16;;;;;;;4.53;1.33;;;;;;;;;;5078344;28;20193;-61
2022/10/22 00:02:47;;;;;;;2.60;2.43;;;;;;;;;;5061831;28;20655;-61
2022/10/22 00:05:14;;;;;;;3.17;2.70;;;;;;;;;;5074979;28;20217;-63
2022/10/22 00:07:42;;;;;;;1.10;1.10;;;;;;;;;;5066216;28;20201;-62
2022/10/22 00:10:10;;;;;;;3.60;2.10;;;;;;;;;;5068886;28;20300;-64
2022/10/22 00:12:37;;;;;;;1.90;1.70;;;;;;;;;;5069640;28;20225;-62
2022/10/22 00:15:05;;;;;;;2.23;1.17;;;;;;;;;;5069722;28;20225;-61
2022/10/22 00:17:33;;;;;;;5.17;4.30;;;;;;;;;;5068073;28;20205;-62
2022/10/22 00:20:00;;;;;;;1.40;1.40;;;;;;;;;;5057361;28;20289;-61
2022/10/22 00:22:27;;;;;;;1.77;1.40;;;;;;;;;;5060084;28;20209;-64
2022/10/22 00:24:55;;;;;;;1.47;1.37;;;;;;;;;;5062595;28;20344;-63
2022/10/22 00:27:22;;;;;;;1.27;1.17;;;;;;;;;;5064367;28;20296;-61
2022/10/22 00:29:49;;;;;;;1.80;0.80;;;;;;;;;;5066819;28;20665;-62
2022/10/22 00:32:17;;;;;;;0.70;0.70;;;;;;;;;;5087494;28;20299;-61
2022/10/22 00:34:44;;;;;;;0.73;0.70;;;;;;;;;;5067288;28;20256;-61
2022/10/22 00:37:11;;;;;;;1.10;1.07;;;;;;;;;;5068919;28;20305;-61
2022/10/22 00:39:38;;;;;;;1.47;1.10;;;;;;;;;;5056729;28;20322;-62
2022/10/22 00:42:06;;;;;;;4.57;3.40;;;;;;;;;;5069425;28;20869;-62
2022/10/22 00:44:52;;;;;;;15.03;11.30;;;;;;;;;;5083921;28;20205;-61
2022/10/22 00:47:19;;;;;;;1.43;1.33;;;;;;;;;;5066078;28;20266;-62
2022/10/22 00:49:47;;;;;;;3.03;2.33;;;;;;;;;;5069031;28;20236;-62
2022/10/22 00:52:15;;;;;;;7.20;6.20;;;;;;;;;;5061742;28;20234;-62
2022/10/22 00:54:42;;;;;;;7.03;5.40;;;;;;;;;;5069380;28;20259;-61
2022/10/22 00:57:09;;;;;;;3.73;2.93;;;;;;;;;;5064356;28;20324;-62
2022/10/22 00:59:38;;;;;;;0.70;0.70;;;;;;;;;;5060281;28;20309;-61
2022/10/22 01:02:05;;;;;;;0.70;0.70;;;;;;;;;;5066002;28;21076;-62
2022/10/22 01:04:32;;;;;;;0.68;0.50;;;;;;;;;;5070366;28;20292;-63
2022/10/22 01:07:00;;;;;;;1.30;0.70;;;;;;;;;;5061700;28;20268;-61
2022/10/22 01:09:27;;;;;;;2.00;1.80;;;;;;;;;;5079154;28;20324;-62
2022/10/22 01:12:18;;;;;;;1.20;0.90;;;;;;;;;;5058964;28;20237;-62
2022/10/22 01:14:48;;;;;;;0.70;0.70;;;;;;;;;;5059557;28;21126;-61
2022/10/22 01:17:22;;;;;;;0.70;0.70;;;;;;;;;;5053940;28;20209;-62
2022/10/22 01:19:49;;;;;;;1.98;0.50;;;;;;;;;;5055273;28;20225;-62
2022/10/22 01:22:25;;;;;;;0.60;0.57;;;;;;;;;;5048645;28;20211;-61
2022/10/22 01:24:55;;;;;;;1.60;0.60;;;;;;;;;;5053824;28;20706;-61
2022/10/22 01:27:31;;;;;;;0.53;0.53;;;;;;;;;;5055410;28;20224;-61
2022/10/22 01:30:04;;;;;;;0.70;0.60;;;;;;;;;;5057713;28;20222;-61
2022/10/22 01:32:34;;;;;;;4.07;0.70;;;;;;;;;;5072676;28;20216;-61
2022/10/22 01:35:03;;;;;;;1.33;0.60;;;;;;;;;;5054370;28;20210;-61
2022/10/22 01:37:33;;;;;;;0.70;0.70;;;;;;;;;;5071320;28;20645;-61
2022/10/22 01:40:01;;;;;;;0.50;0.50;;;;;;;;;;5057819;28;20288;-63
2022/10/22 01:42:29;;;;;;;1.03;0.63;;;;;;;;;;5058544;28;20714;-61
2022/10/22 01:44:56;;;;;;;2.63;0.70;;;;;;;;;;5059074;28;20648;-62
2022/10/22 01:47:35;;;;;;;1.20;0.60;;;;;;;;;;5062228;28;20209;-61
2022/10/22 01:50:06;;;;;;;0.97;0.83;;;;;;;;;;5051922;28;20217;-61
2022/10/22 01:52:47;;;;;;;1.57;0.97;;;;;;;;;;5050826;28;20316;-61
2022/10/22 01:55:44;;;;;;;0.80;0.80;;;;;;;;;;5052791;28;20202;-61
2022/10/22 01:58:17;;;;;;;0.70;0.70;;;;;;;;;;4969870;28;20363;-63
2022/10/22 02:00:47;;;;;;;0.50;0.50;;;;;;;;;;5054166;28;20693;-62
2022/10/22 02:03:18;;;;;;;0.70;0.70;;;;;;;;;;5055101;28;20202;-61
2022/10/22 02:05:53;;;;;;;1.27;0.60;;;;;;;;;;5066561;28;20197;-62
2022/10/22 02:08:23;;;;;;;0.60;0.60;;;;;;;;;;5046717;28;20217;-62
2022/10/22 02:10:51;;;;;;;1.60;1.50;;;;;;;;;;5057203;28;20210;-62
2022/10/22 02:13:22;;;;;;;1.63;1.53;;;;;;;;;;5045520;28;20356;-62
2022/10/22 02:15:51;;;;;;;3.80;1.50;;;;;;;;;;5044999;28;20209;-62
2022/10/22 02:18:20;;;;;;;2.30;1.50;;;;;;;;;;5050758;28;20316;-62
2022/10/22 02:20:48;;;;;;;1.50;1.40;;;;;;;;;;5054447;28;20259;-62
2022/10/22 02:23:15;;;;;;;1.30;1.20;;;;;;;;;;5062982;28;20203;-62
2022/10/22 02:25:45;;;;;;;1.90;1.70;;;;;;;;;;5057993;28;20873;-62
2022/10/22 02:28:15;;;;;;;1.63;1.52;;;;;;;;;;5055025;28;21231;-62
2022/10/22 02:30:46;;;;;;;3.53;1.63;;;;;;;;;;5054539;28;20621;-62
2022/10/22 02:33:19;;;;;;;1.30;1.20;;;;;;;;;;5058741;28;20233;-62
2022/10/22 02:35:48;;;;;;;0.57;0.57;;;;;;;;;;5057377;28;20194;-62
2022/10/22 02:38:15;;;;;;;2.40;0.73;;;;;;;;;;5050543;28;20710;-62
2022/10/22 02:40:43;;;;;;;1.00;0.90;;;;;;;;;;5061404;28;20198;-62
2022/10/22 02:43:10;;;;;;;3.07;0.80;;;;;;;;;;5063317;28;20202;-62
2022/10/22 02:45:38;;;;;;;0.80;0.60;;;;;;;;;;5069060;28;20217;-63
2022/10/22 02:48:08;;;;;;;0.60;0.60;;;;;;;;;;5048099;28;20221;-61
2022/10/22 02:50:36;;;;;;;0.93;0.60;;;;;;;;;;5058591;28;20209;-61
2022/10/22 02:53:03;;;;;;;0.60;0.60;;;;;;;;;;5077286;28;20299;-61
2022/10/22 02:55:30;;;;;;;0.70;0.70;;;;;;;;;;5073071;28;20327;-63
2022/10/22 02:57:58;;;;;;;1.47;0.70;;;;;;;;;;5062276;28;20232;-61
2022/10/22 03:00:25;;;;;;;1.40;0.70;;;;;;;;;;5081522;28;20300;-61
2022/10/22 03:02:52;;;;;;;2.80;0.80;;;;;;;;;;5073281;28;20217;-62
2022/10/22 03:05:20;;;;;;;0.73;0.73;;;;;;;;;;5059778;28;20739;-61
2022/10/22 03:07:47;;;;;;;0.80;0.80;;;;;;;;;;5047662;28;20232;-61
2022/10/22 03:10:14;;;;;;;0.70;0.70;;;;;;;;;;5054937;28;20215;-62
2022/10/22 03:12:42;;;;;;;0.70;0.70;;;;;;;;;;5065015;28;20228;-61
2022/10/22 03:15:09;;;;;;;1.13;0.70;;;;;;;;;;5061196;28;20211;-61
2022/10/22 03:17:36;;;;;;;1.00;0.87;;;;;;;;;;5085914;28;20839;-63
2022/10/22 03:20:04;;;;;;;1.40;1.20;;;;;;;;;;5064416;28;20205;-62
2022/10/22 03:22:32;;;;;;;0.80;0.80;;;;;;;;;;5056897;28;20305;-60
2022/10/22 03:25:02;;;;;;;1.10;1.00;;;;;;;;;;5057626;28;20235;-61
2022/10/22 03:27:29;;;;;;;1.97;0.90;;;;;;;;;;5061355;28;20205;-61
2022/10/22 03:29:57;;;;;;;0.90;0.77;;;;;;;;;;5079484;28;20699;-61
2022/10/22 03:32:24;;;;;;;2.53;0.80;;;;;;;;;;5075680;28;20292;-62
2022/10/22 03:34:52;;;;;;;1.07;0.97;;;;;;;;;;5054762;28;20284;-61
2022/10/22 03:37:19;;;;;;;1.10;1.00;;;;;;;;;;5067742;28;20658;-63
2022/10/22 03:39:47;;;;;;;1.47;0.90;;;;;;;;;;5083351;28;20228;-61
2022/10/22 03:42:15;;;;;;;3.60;1.30;;;;;;;;;;5061170;28;20284;-62
2022/10/22 03:44:42;;;;;;;0.93;0.90;;;;;;;;;;5059794;28;20412;-61
2022/10/22 03:47:10;;;;;;;2.97;1.13;;;;;;;;;;5074334;28;20209;-62
2022/10/22 03:49:37;;;;;;;3.43;1.90;;;;;;;;;;5063185;28;20912;-61
2022/10/22 03:52:06;;;;;;;2.07;1.50;;;;;;;;;;5052757;28;20210;-61
2022/10/22 03:54:34;;;;;;;1.73;1.10;;;;;;;;;;5056114;28;20316;-63
2022/10/22 03:57:02;;;;;;;1.50;1.10;;;;;;;;;;5062365;28;20206;-62
2022/10/22 03:59:33;;;;;;;2.03;1.03;;;;;;;;;;5063053;28;20253;-61
2022/10/22 04:02:01;;;;;;;1.30;0.80;;;;;;;;;;5082539;28;20197;-63
2022/10/22 04:04:28;;;;;;;1.63;1.23;;;;;;;;;;5052166;28;20304;-62
2022/10/22 04:06:56;;;;;;;3.20;1.40;;;;;;;;;;5061468;28;20274;-62
2022/10/22 04:09:23;;;;;;;1.37;1.27;;;;;;;;;;5059816;28;20217;-62
2022/10/22 04:11:50;;;;;;;1.77;1.20;;;;;;;;;;5058547;28;20523;-63
2022/10/22 04:14:18;;;;;;;1.57;1.07;;;;;;;;;;5062442;28;20256;-62
2022/10/22 04:16:45;;;;;;;0.90;0.90;;;;;;;;;;5062305;28;20281;-63
2022/10/22 04:19:13;;;;;;;3.10;0.90;;;;;;;;;;5065411;28;20234;-62
2022/10/22 04:21:41;;;;;;;1.60;1.20;;;;;;;;;;5051261;28;20314;-62
2022/10/22 04:24:08;;;;;;;4.20;1.27;;;;;;;;;;5057421;28;20382;-61
2022/10/22 04:26:36;;;;;;;1.40;1.20;;;;;;;;;;5062230;28;20301;-61
2022/10/22 04:29:03;;;;;;;1.00;0.90;;;;;;;;;;5056920;28;20227;-61
2022/10/22 04:31:30;;;;;;;2.63;1.00;;;;;;;;;;5057138;28;20301;-63
2022/10/22 04:33:58;;;;;;;1.37;0.87;;;;;;;;;;5062643;28;20242;-61
2022/10/22 04:36:26;;;;;;;0.87;0.80;;;;;;;;;;5064311;28;20284;-62
2022/10/22 04:38:58;;;;;;;1.43;0.93;;;;;;;;;;5062674;28;20777;-62
2022/10/22 04:41:27;;;;;;;2.20;1.00;;;;;;;;;;5077084;28;20198;-62
2022/10/22 04:43:55;;;;;;;0.80;0.80;;;;;;;;;;5061187;28;20201;-62
2022/10/22 04:46:23;;;;;;;2.43;0.80;;;;;;;;;;5061278;28;20308;-62
2022/10/22 04:48:51;;;;;;;1.73;1.10;;;;;;;;;;5064886;28;20225;-61
2022/10/22 04:51:19;;;;;;;1.77;1.47;;;;;;;;;;5062734;28;20201;-63
2022/10/22 04:53:47;;;;;;;1.63;1.00;;;;;;;;;;5061697;28;20346;-63
2022/10/22 04:56:18;;;;;;;1.10;1.00;;;;;;;;;;5062307;28;20416;-63
2022/10/22 04:58:47;;;;;;;2.07;0.90;;;;;;;;;;5060690;28;20229;-62
2022/10/22 05:01:19;;;;;;;2.50;1.00;;;;;;;;;;5059190;28;20204;-63
2022/10/22 05:03:48;;;;;;;1.20;1.10;;;;;;;;;;5064027;28;20208;-63
2022/10/22 05:06:16;;;;;;;1.20;1.20;;;;;;;;;;5065762;28;20216;-63
2022/10/22 05:08:43;;;;;;;1.37;1.10;;;;;;;;;;5065350;28;20312;-62
2022/10/22 05:11:18;;;;;;;0.93;0.93;;;;;;;;;;5060343;28;20244;-63
2022/10/22 05:13:46;;;;;;;0.97;0.93;;;;;;;;;;5052142;28;20358;-63
2022/10/22 05:16:13;;;;;;;0.90;0.90;;;;;;;;;;5068045;28;20198;-63
2022/10/22 05:18:42;;;;;;;0.97;0.97;;;;;;;;;;5064806;28;20283;-62
2022/10/22 05:21:11;;;;;;;1.27;1.17;;;;;;;;;;5065288;28;20206;-62
2022/10/22 05:23:39;;;;;;;1.43;1.17;;;;;;;;;;5064067;28;20213;-63
2022/10/22 05:26:07;;;;;;;1.70;1.60;;;;;;;;;;5066525;28;20209;-62
2022/10/22 05:28:34;;;;;;;1.70;1.60;;;;;;;;;;5074145;28;20430;-63
2022/10/22 05:31:02;;;;;;;1.50;1.37;;;;;;;;;;5058569;28;20269;-63
2022/10/22 05:33:30;;;;;;;1.67;1.57;;;;;;;;;;5064594;28;20230;-62
2022/10/22 05:35:57;;;;;;;2.47;1.67;;;;;;;;;;5068200;28;20309;-62
2022/10/22 05:38:25;;;;;;;5.00;2.40;;;;;;;;;;5066621;28;20241;-62
2022/10/22 05:41:00;;;;;;;2.77;2.57;;;;;;;;;;5063222;28;20670;-62
2022/10/22 05:43:27;;;;;;;3.53;2.30;;;;;;;;;;5065197;28;20211;-62
2022/10/22 05:45:55;;;;;;;3.23;2.93;;;;;;;;;;5063673;28;20243;-61
2022/10/22 05:48:22;;;;;;;3.33;3.00;;;;;;;;;;5061788;28;20224;-63
2022/10/22 05:50:50;;;;;;;3.50;3.20;;;;;;;;;;5058412;28;20209;-62
2022/10/22 05:53:17;;;;;;;4.53;3.80;;;;;;;;;;5055181;28;20221;-62
2022/10/22 05:55:45;;;;;;;3.60;3.30;;;;;;;;;;5055368;28;20230;-62
2022/10/22 05:58:13;;;;;;;5.60;3.20;;;;;;;;;;5058773;28;20810;-63
2022/10/22 06:00:40;;;;;;;3.73;3.43;;;;;;;;;;5062763;28;20292;-62
2022/10/22 06:03:07;;;;;;;5.07;3.70;;;;;;;;;;5062622;28;20201;-62
2022/10/22 06:05:36;;;;;;;4.60;3.57;;;;;;;;;;5074757;28;20208;-62
2022/10/22 06:08:03;;;;;;;4.27;3.87;;;;;;;;;;5060243;28;20217;-63
2022/10/22 06:10:31;;;;;;;4.07;3.73;;;;;;;;;;5055251;28;20224;-62
2022/10/22 06:13:00;;;;;;;3.80;3.50;;;;;;;;;;5056287;28;20197;-62
2022/10/22 06:15:27;;;;;;;5.27;3.50;;;;;;;;;;5058157;28;20283;-62
2022/10/22 06:17:55;;;;;;;3.60;3.27;;;;;;;;;;5058169;28;20230;-62
2022/10/22 06:20:22;;;;;;;3.43;3.13;;;;;;;;;;5056392;28;20232;-62
2022/10/22 06:22:49;;;;;;;3.63;3.33;;;;;;;;;;5062485;28;20202;-62
2022/10/22 06:25:17;;;;;;;4.47;3.07;;;;;;;;;;5061716;28;20202;-62
2022/10/22 06:27:50;;;;;;;3.83;3.23;;;;;;;;;;5056237;28;21182;-62
2022/10/22 06:30:17;;;;;;;3.27;3.00;;;;;;;;;;5065377;28;20208;-62
2022/10/22 06:32:45;;;;;;;3.50;3.10;;;;;;;;;;5056367;28;20292;-62
2022/10/22 06:35:12;;;;;;;3.27;2.97;;;;;;;;;;5058044;28;20222;-62
2022/10/22 06:37:39;;;;;;;2.77;2.53;;;;;;;;;;5057693;28;20292;-62
2022/10/22 06:40:07;;;;;;;2.50;2.30;;;;;;;;;;5058103;28;20210;-62
2022/10/22 06:42:35;;;;;;;2.60;1.87;;;;;;;;;;5057867;28;21145;-61
2022/10/22 06:45:02;;;;;;;2.13;1.93;;;;;;;;;;5052149;28;20202;-61
2022/10/22 06:47:32;;;;;;;3.20;1.90;;;;;;;;;;5061420;28;20678;-61
2022/10/22 06:49:59;;;;;;;1.80;1.70;;;;;;;;;;5064059;28;20329;-62
2022/10/22 06:52:26;;;;;;;2.07;1.83;;;;;;;;;;5057133;28;20202;-61
2022/10/22 06:54:53;;;;;;;1.70;1.60;;;;;;;;;;5063435;28;20627;-62
2022/10/22 06:57:21;;;;;;;2.07;1.60;;;;;;;;;;5063807;28;20255;-62
2022/10/22 06:59:48;;;;;;;1.70;1.60;;;;;;;;;;5065383;28;20750;-62
2022/10/22 07:02:15;;;;;;;1.60;1.50;;;;;;;;;;5065158;28;20280;-62
2022/10/22 07:04:43;;;;;;;1.50;1.40;;;;;;;;;;5054420;28;20216;-62
2022/10/22 07:07:10;;;;;;;3.37;1.40;;;;;;;;;;5056744;28;20333;-62
2022/10/22 07:09:38;;;;;;;1.67;1.33;;;;;;;;;;5055224;28;20221;-61
2022/10/22 07:12:05;;;;;;;1.40;1.30;;;;;;;;;;5062555;28;20260;-62
2022/10/22 07:14:33;;;;;;;1.30;1.30;;;;;;;;;;5052292;28;20257;-62
2022/10/22 07:17:01;;;;;;;1.60;1.50;;;;;;;;;;5056754;28;20289;-62
2022/10/22 07:19:30;;;;;;;1.20;1.20;;;;;;;;;;5046410;28;20777;-61
2022/10/22 07:21:57;;;;;;;1.67;1.47;;;;;;;;;;5036004;28;20868;-62
2022/10/22 07:24:25;;;;;;;1.50;1.40;;;;;;;;;;5064701;28;20245;-62
2022/10/22 07:26:52;;;;;;;2.22;1.50;;;;;;;;;;5050606;28;20223;-61
2022/10/22 07:29:19;;;;;;;2.10;1.50;;;;;;;;;;5040027;28;20222;-62
2022/10/22 07:31:47;;;;;;;2.28;1.90;;;;;;;;;;5043977;28;20271;-62
2022/10/22 07:34:14;;;;;;;1.77;1.67;;;;;;;;;;5042064;28;20344;-62
2022/10/22 07:36:42;;;;;;;2.88;2.65;;;;;;;;;;5029778;28;20215;-62
2022/10/22 07:39:09;;;;;;;2.67;2.45;;;;;;;;;;5020463;28;20275;-62
2022/10/22 07:41:36;;;;;;;3.40;3.05;;;;;;;;;;5040403;28;20205;-64
2022/10/22 07:44:04;;;;;;;5.10;2.93;;;;;;;;;;5041506;28;20215;-61
2022/10/22 07:46:31;;;;;;;4.35;3.10;;;;;;;;;;5038607;28;20288;-62
2022/10/22 07:48:58;;;;;;;4.38;3.47;;;;;;;;;;5032744;28;20304;-61
2022/10/22 07:51:26;;;;;;;3.77;3.40;;;;;;;;;;5040896;28;22896;-62
2022/10/22 07:53:53;;;;;;;4.85;3.85;;;;;;;;;;5039428;28;20275;-61
2022/10/22 07:56:21;;;;;;;5.32;3.92;;;;;;;;;;5027082;28;20205;-61
2022/10/22 07:58:48;;;;;;;4.68;3.90;;;;;;;;;;5034136;28;20286;-61
2022/10/22 08:01:16;;;;;;;4.25;3.85;;;;;;;;;;5041071;28;20363;-61
2022/10/22 08:03:44;;;;;;;4.43;3.45;;;;;;;;;;5027299;28;20400;-62
2022/10/22 08:06:21;;;;;;;4.22;3.47;;;;;;;;;;5037949;28;20207;-61
2022/10/22 08:08:49;;;;;;;4.78;3.70;;;;;;;;;;5025295;28;20782;-62
2022/10/22 08:11:16;;;;;;;4.78;3.88;;;;;;;;;;5041544;28;20417;-62
2022/10/22 08:13:43;;;;;;;5.80;3.95;;;;;;;;;;5043970;28;20225;-61
2022/10/22 08:16:12;;;;;;;4.15;3.22;;;;;;;;;;5057431;28;20683;-61
2022/10/22 08:18:39;;;;;;;3.97;3.67;;;;;;;;;;5038906;28;20340;-63
2022/10/22 08:21:07;;;;;;;4.05;3.70;;;;;;;;;;5050076;28;20206;-63
2022/10/22 08:23:34;;;;;;;4.50;3.92;;;;;;;;;;5055552;28;20205;-61
2022/10/22 08:26:01;;;;;;;4.07;3.55;;;;;;;;;;5059396;28;20702;-61
2022/10/22 08:28:31;;;;;;;4.97;4.00;;;;;;;;;;5061627;28;20229;-61
2022/10/22 08:30:58;;;;;;;3.47;3.17;;;;;;;;;;5052057;28;20288;-61
2022/10/22 08:33:26;;;;;;;4.32;3.75;;;;;;;;;;5053857;28;20229;-61
2022/10/22 08:35:53;;;;;;;3.80;3.50;;;;;;;;;;5053856;28;21220;-62
2022/10/22 08:38:21;;;;;;;3.78;3.15;;;;;;;;;;5050236;28;20257;-63
2022/10/22 08:40:51;;;;;;;3.90;3.25;;;;;;;;;;5048228;28;20331;-61
2022/10/22 08:43:34;;;;;;;4.75;3.60;;;;;;;;;;5053030;28;20198;-63
2022/10/22 08:46:22;;;;;;;3.35;2.90;;;;;;;;;;5047228;28;20231;-62
2022/10/22 08:48:52;;;;;;;4.13;3.05;;;;;;;;;;5043471;28;20316;-61
2022/10/22 08:51:24;;;;;;;3.05;2.80;;;;;;;;;;5049301;28;20725;-64
2022/10/22 08:54:10;;;;;;;3.60;2.92;;;;;;;;;;5048948;28;20576;-63
2022/10/22 08:56:38;;;;;;;4.13;2.95;;;;;;;;;;5055114;28;20760;-63
2022/10/22 08:59:09;;;;;;;4.20;3.45;;;;;;;;;;5054822;28;20317;-62
2022/10/22 09:01:46;;;;;;;4.25;2.95;;;;;;;;;;5056361;28;20632;-64
2022/10/22 09:04:24;;;;;;;3.50;3.10;;;;;;;;;;5052574;28;20295;-63
2022/10/22 09:06:52;;;;;;;2.78;2.58;;;;;;;;;;5049061;28;20321;-63
2022/10/22 09:09:21;;;;;;;3.75;2.97;;;;;;;;;;5055747;28;20230;-61
2022/10/22 09:11:50;;;;;;;2.95;2.65;;;;;;;;;;5055270;28;20842;-61
2022/10/22 09:14:19;;;;;;;2.53;2.33;;;;;;;;;;5050313;28;20236;-62
2022/10/22 09:16:49;;;;;;;3.67;2.55;;;;;;;;;;5049144;28;20214;-62
2022/10/22 09:19:17;;;;;;;2.75;2.38;;;;;;;;;;5058070;28;20352;-62
2022/10/22 09:22:00;;;;;;;4.13;2.53;;;;;;;;;;5046639;28;20206;-62
2022/10/22 09:24:34;;;;;;;2.63;2.30;;;;;;;;;;5066497;28;20317;-61
2022/10/22 09:27:01;;;;;;;2.78;2.58;;;;;;;;;;5045528;28;20274;-61
2022/10/22 09:29:32;;;;;;;3.03;2.72;;;;;;;;;;5044506;28;20232;-63
2022/10/22 09:31:59;;;;;;;5.07;2.92;;;;;;;;;;5056813;28;20255;-63
2022/10/22 09:34:28;;;;;;;3.03;2.60;;;;;;;;;;5046729;28;20217;-63
2022/10/22 09:37:02;;;;;;;2.67;2.47;;;;;;;;;;5047618;28;20206;-62
2022/10/22 09:39:33;;;;;;;2.65;2.45;;;;;;;;;;5052443;28;20253;-63
2022/10/22 09:42:01;;;;;;;3.97;2.75;;;;;;;;;;5047113;28;20328;-62
2022/10/22 09:44:28;;;;;;;2.42;2.22;;;;;;;;;;5049491;28;20657;-62
2022/10/22 09:46:55;;;;;;;3.28;2.30;;;;;;;;;;5047653;28;20218;-61
2022/10/22 09:49:23;;;;;;;3.40;2.50;;;;;;;;;;5055967;28;20221;-62
2022/10/22 09:51:58;;;;;;;3.78;2.63;;;;;;;;;;5045440;28;21073;-62
2022/10/22 09:54:31;;;;;;;5.32;2.97;;;;;;;;;;5037524;28;20233;-62
2022/10/22 09:57:05;;;;;;;3.75;3.00;;;;;;;;;;5045243;28;20327;-63
2022/10/22 09:59:33;;;;;;;6.20;3.05;;;;;;;;;;5063183;28;20234;-61
2022/10/22 10:02:10;;;;;;;3.17;2.80;;;;;;;;;;5057794;28;20205;-63
2022/10/22 10:05:01;;;;;;;3.45;2.63;;;;;;;;;;5051732;28;20223;-62
2022/10/22 10:07:33;;;;;;;3.08;2.55;;;;;;;;;;5046080;28;20286;-62
2022/10/22 10:10:00;;;;;;;3.58;2.97;;;;;;;;;;5048604;28;20647;-63
2022/10/22 10:12:53;;;;;;;2.42;2.20;;;;;;;;;;5064194;28;20339;-62
2022/10/22 10:15:20;;;;;;;2.55;2.35;;;;;;;;;;5044787;28;20324;-62
2022/10/22 10:17:51;;;;;;;5.80;2.20;;;;;;;;;;5056624;28;20293;-62
2022/10/22 10:20:39;;;;;;;2.75;2.55;;;;;;;;;;5057160;28;20201;-62
2022/10/22 10:23:22;;;;;;;2.22;2.00;;;;;;;;;;5056121;28;20198;-61
2022/10/22 10:25:56;;;;;;;4.05;2.35;;;;;;;;;;5064797;28;20217;-64
2022/10/22 10:28:24;;;;;;;2.15;1.95;;;;;;;;;;5063893;28;20726;-63
2022/10/22 10:31:00;;;;;;;3.33;1.85;;;;;;;;;;5065789;28;20304;-61
2022/10/22 10:33:32;;;;;;;2.42;1.80;;;;;;;;;;5061008;28;20217;-62
2022/10/22 10:36:11;;;;;;;2.63;2.00;;;;;;;;;;5062275;28;20251;-61
2022/10/22 10:38:44;;;;;;;5.53;2.00;;;;;;;;;;5061463;28;20350;-63
2022/10/22 10:41:14;;;;;;;2.08;1.88;;;;;;;;;;5055231;28;20221;-63
2022/10/22 10:43:44;;;;;;;9.93;5.65;;;;;;;;;;5047915;28;20245;-61
2022/10/22 10:46:27;;;;;;;6.05;3.75;;;;;;;;;;5048848;28;20264;-62
2022/10/22 10:48:58;;;;;;;2.97;2.08;;;;;;;;;;5049319;28;20296;-62
2022/10/22 10:51:44;;;;;;;2.55;1.58;;;;;;;;;;5041707;28;20292;-62
2022/10/22 10:54:11;;;;;;;4.80;1.80;;;;;;;;;;5040894;28;20211;-61
2022/10/22 10:56:40;;;;;;;2.58;1.40;;;;;;;;;;5052337;28;21601;-62
2022/10/22 10:59:08;;;;;;;3.85;1.60;;;;;;;;;;5049011;28;20226;-61
2022/10/22 11:01:35;;;;;;;1.40;1.30;;;;;;;;;;5056542;28;20306;-61
2022/10/22 11:04:13;;;;;;;3.05;1.23;;;;;;;;;;5053604;28;20213;-62
2022/10/22 11:06:44;;;;;;;5.00;1.48;;;;;;;;;;5052398;28;20281;-61
2022/10/22 11:09:25;;;;;;;2.30;1.35;;;;;;;;;;5066571;28;20304;-61
2022/10/22 11:12:04;;;;;;;1.75;1.50;;;;;;;;;;5047196;28;20378;-62
2022/10/22 11:14:49;;;;;;;2.20;1.40;;;;;;;;;;5051486;28;20566;-61
2022/10/22 11:17:17;;;;;;;3.45;1.40;;;;;;;;;;5052456;28;20288;-62
2022/10/22 11:19:47;;;;;;;4.20;1.40;;;;;;;;;;5048424;28;20228;-61
2022/10/22 11:22:25;;;;;;;2.33;1.13;;;;;;;;;;5052070;28;20679;-61
2022/10/22 11:24:59;;;;;;;1.90;1.40;;;;;;;;;;5049138;28;20205;-61
2022/10/22 11:27:45;;;;;;;2.05;1.40;;;;;;;;;;5045981;28;20402;-62
2022/10/22 11:30:15;;;;;;;2.25;1.60;;;;;;;;;;5051523;28;20201;-62
2022/10/22 11:32:46;;;;;;;1.45;1.00;;;;;;;;;;5040878;28;20205;-61
2022/10/22 11:35:16;;;;;;;1.80;1.35;;;;;;;;;;5032830;28;20237;-63
2022/10/22 11:37:45;;;;;;;2.88;1.42;;;;;;;;;;5032603;28;20709;-61
2022/10/22 11:40:15;;;;;;;3.20;1.30;;;;;;;;;;5033027;28;20311;-61
2022/10/22 11:42:49;;;;;;;2.38;1.40;;;;;;;;;;5043366;28;20236;-62
2022/10/22 11:45:16;;;;;;;4.30;1.48;;;;;;;;;;5035940;28;20332;-62
2022/10/22 11:47:57;;;;;;;2.50;1.45;;;;;;;;;;5045133;28;20209;-62
2022/10/22 11:50:43;;;;;;;4.75;1.50;;;;;;;;;;5052319;28;20290;-62
2022/10/22 11:53:13;;;;;;;2.60;1.30;;;;;;;;;;5052698;28;20216;-61
2022/10/22 11:55:44;;;;;;;4.30;1.33;;;;;;;;;;5054408;28;20279;-61
2022/10/22 11:58:27;;;;;;;1.33;1.15;;;;;;;;;;5060646;28;20229;-62
2022/10/22 12:00:57;;;;;;;3.95;1.50;;;;;;;;;;5051408;28;20200;-61
2022/10/22 12:03:30;;;;;;;2.65;1.45;;;;;;;;;;5065004;28;20252;-62
2022/10/22 12:06:10;;;;;;;1.83;1.50;;;;;;;;;;5047968;28;20209;-61
2022/10/22 12:08:43;;;;;;;2.28;1.30;;;;;;;;;;5051368;28;20241;-62
2022/10/22 12:11:11;;;;;;;2.50;1.15;;;;;;;;;;5052254;28;20197;-62
2022/10/22 12:14:00;;;;;;;3.78;1.42;;;;;;;;;;5044771;28;20216;-62
2022/10/22 12:16:29;;;;;;;4.15;1.42;;;;;;;;;;5064324;28;20343;-61
2022/10/22 12:19:36;;;;;;;2.88;1.23;;;;;;;;;;5069348;28;20251;-62
2022/10/22 12:22:07;;;;;;;3.10;1.15;;;;;;;;;;5049470;28;20210;-62
2022/10/22 12:24:36;;;;;;;6.00;1.67;;;;;;;;;;5056943;28;20288;-62
2022/10/22 12:27:06;;;;;;;3.40;1.20;;;;;;;;;;5067099;28;20201;-62
2022/10/22 12:29:34;;;;;;;2.88;1.08;;;;;;;;;;5047913;28;20221;-61
2022/10/22 12:32:03;;;;;;;2.20;1.35;;;;;;;;;;5054930;28;20285;-62
2022/10/22 12:34:30;;;;;;;2.65;0.98;;;;;;;;;;5052762;28;20197;-62
2022/10/22 12:36:57;;;;;;;2.50;1.30;;;;;;;;;;5060907;28;20737;-62
2022/10/22 12:39:26;;;;;;;1.42;1.08;;;;;;;;;;5051578;28;20239;-62
2022/10/22 12:41:54;;;;;;;5.80;1.23;;;;;;;;;;5054020;28;20203;-62
2022/10/22 12:44:21;;;;;;;3.10;1.17;;;;;;;;;;5045917;28;20207;-62
2022/10/22 12:46:49;;;;;;;2.95;1.23;;;;;;;;;;5060643;28;20416;-61
2022/10/22 12:49:24;;;;;;;3.75;1.10;;;;;;;;;;5054870;28;20698;-61
2022/10/22 12:51:52;;;;;;;3.33;1.40;;;;;;;;;;5061499;28;20258;-61
2022/10/22 12:54:25;;;;;;;3.75;1.17;;;;;;;;;;5059222;28;20202;-64
2022/10/22 12:56:53;;;;;;;1.75;1.10;;;;;;;;;;5048452;28;20218;-61
2022/10/22 12:59:24;;;;;;;2.90;1.00;;;;;;;;;;5059931;28;20235;-61
2022/10/22 13:01:51;;;;;;;3.70;1.50;;;;;;;;;;5055915;28;20307;-63
2022/10/22 13:04:21;;;;;;;1.67;1.00;;;;;;;;;;5066589;28;20260;-62
2022/10/22 13:06:49;;;;;;;3.75;1.15;;;;;;;;;;5058871;28;20200;-62
2022/10/22 13:09:24;;;;;;;2.10;1.05;;;;;;;;;;5054935;28;20331;-62
2022/10/22 13:12:00;;;;;;;1.55;1.00;;;;;;;;;;5047081;28;20213;-63
2022/10/22 13:14:28;;;;;;;4.22;1.58;;;;;;;;;;5052456;28;20691;-61
2022/10/22 13:17:03;;;;;;;5.18;1.35;;;;;;;;;;5056078;28;20222;-61
2022/10/22 13:19:53;;;;;;;2.60;1.15;;;;;;;;;;5063658;28;20315;-61
2022/10/22 13:22:26;;;;;;;4.35;3.20;;;;;;;;;;5051865;28;20293;-62
2022/10/22 13:24:55;;;;;;;2.25;1.10;;;;;;;;;;5057378;28;20242;-63
2022/10/22 13:27:23;;;;;;;4.88;2.08;;;;;;;;;;5051300;28;20286;-61
2022/10/22 13:29:50;;;;;;;2.47;1.38;;;;;;;;;;5062649;28;21827;-62
2022/10/22 13:32:36;;;;;;;3.97;1.20;;;;;;;;;;5080361;28;20324;-61
2022/10/22 13:35:03;;;;;;;1.67;0.95;;;;;;;;;;5062680;28;20278;-61
2022/10/22 13:37:33;;;;;;;1.75;1.10;;;;;;;;;;5061856;28;20255;-61
2022/10/22 13:40:00;;;;;;;2.15;1.00;;;;;;;;;;5056319;28;20644;-63
2022/10/22 13:42:27;;;;;;;2.22;1.10;;;;;;;;;;5061129;28;20229;-62
2022/10/22 13:44:54;;;;;;;1.67;0.80;;;;;;;;;;5063864;28;20308;-61
2022/10/22 13:47:28;;;;;;;3.40;1.00;;;;;;;;;;5060234;28;20276;-62
2022/10/22 13:49:57;;;;;;;1.77;0.82;;;;;;;;;;5063860;28;20339;-62
2022/10/22 13:52:31;;;;;;;2.85;1.00;;;;;;;;;;5078715;28;20251;-64
2022/10/22 13:54:58;;;;;;;1.42;0.90;;;;;;;;;;5057173;28;20221;-61
2022/10/22 13:57:26;;;;;;;1.70;0.98;;;;;;;;;;5076387;28;20202;-61
2022/10/22 13:59:53;;;;;;;1.67;1.00;;;;;;;;;;5078779;28;20304;-62
2022/10/22 14:02:23;;;;;;;1.80;0.80;;;;;;;;;;5060320;28;20255;-62
2022/10/22 14:04:51;;;;;;;4.35;1.02;;;;;;;;;;5059918;28;20210;-61
2022/10/22 14:07:18;;;;;;;3.45;1.50;;;;;;;;;;5056959;28;20617;-62
2022/10/22 14:09:45;;;;;;;2.55;0.90;;;;;;;;;;5061559;28;20227;-62
2022/10/22 14:12:15;;;;;;;3.47;2.35;;;;;;;;;;5067084;28;20236;-62
2022/10/22 14:14:42;;;;;;;2.60;0.93;;;;;;;;;;5064550;28;20244;-61
2022/10/22 14:17:15;;;;;;;2.22;0.93;;;;;;;;;;5060878;28;20596;-62
2022/10/22 14:19:44;;;;;;;1.52;0.75;;;;;;;;;;5078568;28;20569;-62
2022/10/22 14:22:17;;;;;;;2.15;0.90;;;;;;;;;;5050322;28;20209;-61
2022/10/22 14:24:44;;;;;;;3.67;0.95;;;;;;;;;;5047859;28;20577;-63
2022/10/22 14:27:13;;;;;;;2.63;0.80;;;;;;;;;;5070815;28;20579;-63
2022/10/22 14:29:40;;;;;;;1.70;0.88;;;;;;;;;;5061369;28;20588;-63
2022/10/22 14:32:15;;;;;;;0.95;0.95;;;;;;;;;;5060570;28;23153;-63
2022/10/22 14:34:44;;;;;;;1.40;0.70;;;;;;;;;;5061012;28;20340;-62
2022/10/22 14:37:19;;;;;;;2.65;1.23;;;;;;;;;;5055547;28;20316;-63
2022/10/22 14:39:50;;;;;;;2.50;0.80;;;;;;;;;;5058278;28;20823;-62
2022/10/22 14:42:18;;;;;;;1.98;0.80;;;;;;;;;;5066805;28;20544;-62
2022/10/22 14:44:46;;;;;;;0.75;0.70;;;;;;;;;;5058205;28;20210;-62
2022/10/22 14:47:14;;;;;;;1.55;0.70;;;;;;;;;;5044633;28;20210;-62
2022/10/22 14:49:41;;;;;;;0.85;0.75;;;;;;;;;;5054865;28;20251;-61
2022/10/22 14:52:08;;;;;;;2.63;0.90;;;;;;;;;;5053709;28;20306;-61
2022/10/22 14:54:41;;;;;;;5.10;0.90;;;;;;;;;;5056039;28;20217;-63
2022/10/22 14:57:10;;;;;;;2.15;0.82;;;;;;;;;;5059030;28;20726;-65
2022/10/22 14:59:37;;;;;;;1.95;0.80;;;;;;;;;;5040987;28;20259;-62